createdAt,value
2022-10-30T00:00:41.913Z,99.80
2022-10-30T00:03:12.852Z,99.80
2022-10-30T00:05:43.888Z,99.80
2022-10-30T00:08:12.665Z,99.80
2022-10-30T00:10:41.135Z,99.80
2022-10-30T00:13:10.538Z,99.80
2022-10-30T00:15:38.749Z,99.80
2022-10-30T00:18:07.550Z,99.80
2022-10-30T00:20:37.564Z,99.80
2022-10-30T00:30:31.171Z,99.80
2022-10-30T00:33:01.640Z,99.80
2022-10-30T00:47:56.179Z,99.80
2022-10-30T00:53:03.297Z,99.80
2022-10-30T00:55:34.199Z,99.80
2022-10-30T00:58:04.300Z,99.80
2022-10-30T01:00:35.317Z,99.80
2022-10-30T01:03:04.865Z,99.80
2022-10-30T01:05:35.287Z,99.80
2022-10-30T01:10:31.557Z,99.80
2022-10-30T01:13:00.689Z,99.80
2022-10-30T01:15:33.138Z,99.80
2022-10-30T01:18:26.472Z,99.80
2022-10-30T01:21:06.918Z,99.80
2022-10-30T01:23:46.017Z,99.80
2022-10-30T01:26:25.156Z,99.80
2022-10-30T01:29:12.242Z,99.80
2022-10-30T01:31:57.673Z,99.80
2022-10-30T01:34:35.014Z,99.80
2022-10-30T01:37:07.251Z,99.80
2022-10-30T01:39:38.219Z,99.80
2022-10-30T01:42:32.661Z,99.80
2022-10-30T01:47:38.469Z,99.80
2022-10-30T01:50:26.748Z,99.80
2022-10-30T01:53:01.052Z,99.80
2022-10-30T01:55:38.433Z,99.80
2022-10-30T01:58:14.392Z,99.80
2022-10-30T02:00:44.713Z,99.80
2022-10-30T02:05:44.875Z,99.80
2022-10-30T02:10:43.374Z,99.80
2022-10-30T02:13:11.569Z,99.80
2022-10-30T02:15:39.767Z,99.80
2022-10-30T02:20:38.840Z,99.80
2022-10-30T02:23:08.764Z,99.80
2022-10-30T02:28:05.449Z,99.80
2022-10-30T02:35:31.288Z,99.80
2022-10-30T02:38:00.739Z,99.80
2022-10-30T02:55:19.117Z,99.80
2022-10-30T03:00:16.072Z,99.80
2022-10-30T03:10:09.273Z,99.80
2022-10-30T03:12:38.382Z,99.80
2022-10-30T03:15:07.094Z,99.80
2022-10-30T03:29:57.004Z,99.80
2022-10-30T03:39:49.346Z,99.80
2022-10-30T03:47:14.706Z,99.80
2022-10-30T04:04:32.998Z,99.80
2022-10-30T04:07:00.965Z,99.80
2022-10-30T04:21:51.249Z,99.80
2022-10-30T04:39:10.760Z,99.80
2022-10-30T04:53:59.484Z,99.80
2022-10-30T04:56:28.631Z,99.80
2022-10-30T05:06:25.764Z,99.80
2022-10-30T05:11:23.837Z,99.80
2022-10-30T05:13:53.006Z,99.80
2022-10-30T05:31:11.726Z,99.80
2022-10-30T05:36:08.141Z,99.80
2022-10-30T05:48:29.873Z,99.80
2022-10-30T05:50:58.027Z,99.80
2022-10-30T05:55:57.803Z,99.80
2022-10-30T06:00:54.096Z,99.80
2022-10-30T06:05:51.379Z,99.80
2022-10-30T06:23:11.859Z,99.80
2022-10-30T06:28:11.176Z,99.80
2022-10-30T06:33:07.737Z,99.80
2022-10-30T06:35:35.654Z,99.80
2022-10-30T06:40:33.844Z,99.80
2022-10-30T06:57:57.335Z,99.80
2022-10-30T07:02:58.324Z,99.80
2022-10-30T07:07:57.384Z,99.80
2022-10-30T07:12:57.558Z,99.80
2022-10-30T07:15:26.291Z,99.80
2022-10-30T07:17:56.266Z,99.80
2022-10-30T07:20:25.106Z,99.80
2022-10-30T07:25:21.276Z,99.80
2022-10-30T07:27:51.340Z,99.80
2022-10-30T07:30:21.850Z,99.80
2022-10-30T07:32:58.742Z,99.80
2022-10-30T07:35:26.903Z,99.80
2022-10-30T07:37:55.186Z,99.80
2022-10-30T07:40:23.338Z,99.80
2022-10-30T07:45:22.234Z,99.80
2022-10-30T07:55:14.995Z,99.80
2022-10-30T07:57:43.837Z,99.80
2022-10-30T08:00:14.594Z,99.80
2022-10-30T08:02:43.975Z,99.80
2022-10-30T08:05:12.055Z,99.80
2022-10-30T08:07:40.336Z,99.80
2022-10-30T08:10:09.082Z,99.80
2022-10-30T08:12:38.290Z,99.80
2022-10-30T08:15:07.065Z,99.80
2022-10-30T08:17:41.816Z,99.80
2022-10-30T08:20:13.096Z,99.80
2022-10-30T08:22:50.867Z,99.80
2022-10-30T08:25:20.692Z,99.80
2022-10-30T08:27:56.247Z,99.80
2022-10-30T08:30:25.100Z,99.80
2022-10-30T08:35:22.490Z,99.80
2022-10-30T08:42:52.059Z,99.80
2022-10-30T08:45:20.474Z,99.80
2022-10-30T08:52:49.502Z,99.80
2022-10-30T08:57:48.431Z,99.80
2022-10-30T09:00:16.514Z,99.80
2022-10-30T09:10:11.485Z,99.80
2022-10-30T09:15:08.901Z,99.80
2022-10-30T09:20:05.673Z,99.80
2022-10-30T09:27:31.097Z,99.80
2022-10-30T09:39:54.988Z,99.80
2022-10-30T09:42:43.848Z,99.80
2022-10-30T09:45:35.034Z,99.80
2022-10-30T09:48:22.024Z,99.80
2022-10-30T09:50:57.763Z,99.80
2022-10-30T09:53:35.240Z,99.80
2022-10-30T09:56:08.398Z,99.80
2022-10-30T09:58:58.493Z,99.80
2022-10-30T10:01:32.546Z,99.80
2022-10-30T10:04:09.536Z,99.80
2022-10-30T10:06:41.648Z,99.80
2022-10-30T10:09:15.351Z,99.80
2022-10-30T10:11:47.021Z,99.80
2022-10-30T10:14:22.421Z,99.80
2022-10-30T10:16:54.097Z,99.80
2022-10-30T10:19:23.457Z,99.80
2022-10-30T10:21:57.056Z,99.80
2022-10-30T10:24:27.681Z,99.80
2022-10-30T10:27:19.316Z,99.80
2022-10-30T10:29:58.653Z,99.80
2022-10-30T10:33:01.045Z,99.80
2022-10-30T10:35:48.239Z,99.80
2022-10-30T10:38:33.976Z,99.80
2022-10-30T10:41:12.634Z,99.80
2022-10-30T10:43:53.427Z,99.80
2022-10-30T10:46:39.135Z,99.80
2022-10-30T10:49:20.756Z,99.80
2022-10-30T12:37:45.303Z,60.40
2022-10-30T12:40:18.202Z,66.50
2022-10-30T12:42:52.145Z,72.50
2022-10-30T12:45:24.330Z,77.20
2022-10-30T12:47:58.289Z,81.40
2022-10-30T12:50:31.079Z,85.20
2022-10-30T12:53:03.536Z,88.50
2022-10-30T12:55:41.007Z,90.60
2022-10-30T12:58:18.186Z,92.20
2022-10-30T13:00:55.756Z,94.40
2022-10-30T13:03:32.065Z,94.80
2022-10-30T13:06:08.148Z,96.20
2022-10-30T13:08:40.695Z,97.30
2022-10-30T13:11:16.029Z,97.60
2022-10-30T13:13:48.632Z,97.60
2022-10-30T13:16:20.602Z,99.80
2022-10-30T13:21:25.407Z,98.10
2022-10-30T13:23:59.844Z,99.20
2022-10-30T13:26:34.933Z,98.80
2022-10-30T13:29:10.974Z,99.20
2022-10-30T13:31:50.600Z,99.80
2022-10-30T13:34:31.871Z,99.80
2022-10-30T13:37:07.641Z,99.20
2022-10-30T13:39:40.869Z,98.00
2022-10-30T13:42:26.347Z,96.10
2022-10-30T13:45:06.814Z,95.70
2022-10-30T13:47:44.270Z,95.00
2022-10-30T13:50:25.870Z,95.90
2022-10-30T13:52:58.730Z,95.40
2022-10-30T13:55:30.489Z,95.60
2022-10-30T13:58:03.384Z,96.80
2022-10-30T14:00:51.250Z,97.50
2022-10-30T14:03:39.228Z,98.70
2022-10-30T14:06:15.085Z,99.60
2022-10-30T14:08:51.637Z,99.40
2022-10-30T14:13:56.244Z,99.80
2022-10-30T14:16:41.020Z,99.80
2022-10-30T14:19:09.629Z,99.80
2022-10-30T14:21:45.951Z,99.80
2022-10-30T14:24:21.292Z,99.80
2022-10-30T14:26:53.621Z,99.80
2022-10-30T14:29:43.580Z,99.80
2022-10-30T14:32:34.017Z,99.80
2022-10-30T14:37:58.462Z,99.80
2022-10-30T14:40:42.296Z,99.80
2022-10-30T14:43:14.133Z,99.80
2022-10-30T14:45:49.485Z,99.80
2022-10-30T14:48:23.438Z,99.80
2022-10-30T14:51:02.290Z,99.80
2022-10-30T14:53:43.678Z,99.80
2022-10-30T14:56:28.071Z,99.80
2022-10-30T14:59:20.484Z,99.80
2022-10-30T15:01:54.797Z,99.80
2022-10-30T15:04:28.881Z,99.80
2022-10-30T15:07:06.616Z,99.80
2022-10-30T15:09:45.177Z,99.80
2022-10-30T15:12:35.331Z,99.80
2022-10-30T15:15:06.080Z,99.80
2022-10-30T15:17:38.078Z,99.80
2022-10-30T15:20:09.690Z,99.80
2022-10-30T15:22:37.856Z,99.80
2022-10-30T15:25:07.209Z,99.80
2022-10-30T15:27:41.180Z,99.80
2022-10-30T15:30:18.195Z,99.80
2022-10-30T15:35:17.693Z,99.80
2022-10-30T15:38:02.652Z,99.80
2022-10-30T15:40:31.585Z,99.80
2022-10-30T15:43:02.515Z,99.80
2022-10-30T15:45:35.211Z,99.80
2022-10-30T15:48:07.818Z,99.80
2022-10-30T15:50:37.582Z,99.80
2022-10-30T15:53:05.504Z,99.80
2022-10-30T15:55:34.314Z,99.80
2022-10-30T15:58:05.642Z,99.80
2022-10-30T16:00:36.200Z,99.80
2022-10-30T16:03:06.859Z,99.80
2022-10-30T16:05:35.721Z,99.80
2022-10-30T16:08:05.486Z,99.80
2022-10-30T16:10:36.042Z,99.80
2022-10-30T16:13:05.646Z,99.80
2022-10-30T16:15:36.443Z,99.80
2022-10-30T16:18:13.586Z,99.80
2022-10-30T16:20:44.025Z,99.80
2022-10-30T16:23:13.625Z,99.80
2022-10-30T16:25:46.940Z,99.80
2022-10-30T16:28:31.662Z,99.80
2022-10-30T16:31:02.479Z,99.80
2022-10-30T16:33:31.734Z,99.80
2022-10-30T16:36:00.869Z,99.80
2022-10-30T16:38:32.494Z,99.80
2022-10-30T16:43:32.061Z,99.80
2022-10-30T16:46:35.484Z,99.80
2022-10-30T16:49:08.645Z,99.80
2022-10-30T16:51:39.741Z,99.80
2022-10-30T16:54:18.196Z,99.80
2022-10-30T16:56:48.966Z,99.80
2022-10-30T16:59:25.603Z,99.80
2022-10-30T17:01:56.685Z,99.80
2022-10-30T17:04:24.732Z,99.80
2022-10-30T17:07:06.021Z,99.80
2022-10-30T17:09:37.827Z,99.80
2022-10-30T17:12:13.669Z,99.80
2022-10-30T17:14:54.373Z,99.80
2022-10-30T17:17:25.420Z,99.80
2022-10-30T17:19:58.591Z,99.80
2022-10-30T17:22:27.813Z,99.80
2022-10-30T17:24:55.952Z,99.80
2022-10-30T17:27:46.159Z,99.80
2022-10-30T17:30:39.555Z,99.80
2022-10-30T17:33:36.286Z,99.80
2022-10-30T17:36:06.017Z,99.80
2022-10-30T17:38:35.907Z,99.80
2022-10-30T17:41:05.123Z,99.80
2022-10-30T17:43:35.237Z,99.80
2022-10-30T17:46:05.266Z,99.80
2022-10-30T17:56:03.244Z,99.80
2022-10-30T18:01:00.381Z,99.80
2022-10-30T18:03:30.094Z,99.80
2022-10-30T18:15:57.066Z,99.80
2022-10-30T18:20:54.601Z,99.80
2022-10-30T18:23:52.022Z,99.80
2022-10-30T18:26:16.435Z,99.80
2022-10-30T18:31:13.822Z,99.80
2022-10-30T18:33:41.866Z,99.80
2022-10-30T18:36:14.362Z,99.80
2022-10-30T18:41:15.388Z,99.80
2022-10-30T18:46:16.452Z,99.80
2022-10-30T18:48:44.749Z,99.80
2022-10-30T18:51:17.930Z,99.80
2022-10-30T18:53:51.624Z,99.80
2022-10-30T18:56:21.184Z,99.80
2022-10-30T19:01:18.574Z,99.80
2022-10-30T19:03:47.698Z,99.80
2022-10-30T19:06:18.878Z,99.80
2022-10-30T19:11:20.118Z,99.80
2022-10-30T19:13:52.514Z,99.80
2022-10-30T19:16:21.315Z,99.80
2022-10-30T19:18:49.510Z,99.80
2022-10-30T19:21:20.955Z,99.80
2022-10-30T19:23:49.657Z,99.80
2022-10-30T19:28:46.353Z,99.80
2022-10-30T19:31:15.733Z,99.80
2022-10-30T19:33:44.050Z,99.80
2022-10-30T19:36:30.780Z,99.80
2022-10-30T19:39:00.818Z,99.80
2022-10-30T19:51:30.159Z,99.80
2022-10-30T19:56:26.265Z,99.80
2022-10-30T20:08:50.593Z,99.80
2022-10-30T20:23:46.062Z,99.80
2022-10-30T20:26:22.790Z,99.80
2022-10-30T20:28:51.025Z,99.80
2022-10-30T20:31:19.182Z,99.80
2022-10-30T20:33:47.123Z,99.80
2022-10-30T20:36:15.745Z,99.80
2022-10-30T20:41:22.274Z,99.80
2022-10-30T20:43:50.974Z,99.80
2022-10-30T20:46:20.565Z,99.80
2022-10-30T20:48:49.114Z,99.80
2022-10-30T20:51:17.346Z,99.80
2022-10-30T20:58:43.525Z,99.80
2022-10-30T21:08:38.503Z,99.80
2022-10-30T21:11:08.449Z,99.80
2022-10-30T21:13:37.335Z,99.80
2022-10-30T21:16:09.444Z,99.80
2022-10-30T21:18:37.560Z,99.80
2022-10-30T21:21:06.984Z,99.80
2022-10-30T21:26:04.265Z,99.80
2022-10-30T21:31:03.055Z,99.80
2022-10-30T21:33:33.468Z,99.80
2022-10-30T21:36:11.643Z,99.80
2022-10-30T21:38:41.879Z,99.80
2022-10-30T21:41:10.150Z,99.80
2022-10-30T21:46:07.257Z,99.80
2022-10-30T21:48:36.461Z,99.80
2022-10-30T21:51:09.278Z,99.80
2022-10-30T21:53:37.380Z,99.80
2022-10-30T21:56:06.927Z,99.80
2022-10-30T21:58:34.872Z,99.80
2022-10-30T22:11:05.186Z,99.80
2022-10-30T22:16:02.076Z,99.80
2022-10-30T22:18:30.886Z,99.80
2022-10-30T22:21:02.257Z,99.80
2022-10-30T22:23:30.678Z,99.80
2022-10-30T22:26:01.072Z,99.80
2022-10-30T22:28:32.347Z,99.80
2022-10-30T22:31:03.481Z,99.80
2022-10-30T22:33:32.332Z,99.80
2022-10-30T22:36:04.034Z,99.80
2022-10-30T22:41:13.836Z,99.80
2022-10-30T22:43:44.656Z,99.80
2022-10-30T22:46:13.384Z,99.80
2022-10-30T22:48:41.330Z,99.80
2022-10-30T22:51:15.065Z,99.80
2022-10-30T22:53:44.689Z,99.80
2022-10-30T22:56:14.728Z,99.80
2022-10-30T22:58:44.287Z,99.80
2022-10-30T23:01:14.430Z,99.80
2022-10-30T23:03:42.714Z,99.80
2022-10-30T23:06:11.395Z,99.80
2022-10-30T23:08:39.488Z,99.80
2022-10-30T23:11:07.705Z,99.80
2022-10-30T23:13:37.247Z,99.80
2022-10-30T23:16:08.334Z,99.80
2022-10-30T23:18:36.540Z,99.80
2022-10-30T23:21:06.630Z,99.80
2022-10-30T23:23:36.559Z,99.80
2022-10-30T23:26:06.552Z,99.80
2022-10-30T23:31:06.581Z,99.80
2022-10-30T23:33:34.612Z,99.80
2022-10-30T23:36:03.302Z,99.80
2022-10-30T23:48:25.200Z,99.80
2022-10-30T23:55:51.800Z,99.80
2022-10-30T23:58:19.838Z,99.80
